createdAt,value
2019-06-26T00:00:47.540Z,16.33
2019-06-26T00:03:16.949Z,16.17
2019-06-26T00:05:45.373Z,16.37
2019-06-26T00:08:13.850Z,17.40
2019-06-26T00:10:42.043Z,15.60
2019-06-26T00:13:25.074Z,15.53
2019-06-26T00:15:40.645Z,16.60
2019-06-26T00:18:09.079Z,15.17
2019-06-26T00:20:37.550Z,15.93
2019-06-26T00:23:06.405Z,14.90
2019-06-26T00:25:34.637Z,15.80
2019-06-26T00:28:03.531Z,14.80
2019-06-26T00:30:32.087Z,15.60
2019-06-26T00:33:00.534Z,14.97
2019-06-26T00:35:28.642Z,15.27
2019-06-26T00:37:57.072Z,15.30
2019-06-26T00:40:25.575Z,14.30
2019-06-26T00:42:54.238Z,15.70
2019-06-26T00:45:22.402Z,15.67
2019-06-26T00:47:51.270Z,15.10
2019-06-26T00:50:20.316Z,16.20
2019-06-26T00:52:48.662Z,15.10
2019-06-26T00:55:17.119Z,14.70
2019-06-26T00:57:45.546Z,15.00
2019-06-26T01:00:14.763Z,15.33
2019-06-26T01:02:43.191Z,13.77
2019-06-26T01:05:13.061Z,14.83
2019-06-26T01:07:41.760Z,15.37
2019-06-26T01:10:14.798Z,14.90
2019-06-26T01:12:43.297Z,15.53
2019-06-26T01:15:12.445Z,13.90
2019-06-26T01:17:41.018Z,14.20
2019-06-26T01:20:10.052Z,14.53
2019-06-26T01:22:38.489Z,13.90
2019-06-26T01:25:07.461Z,14.73
2019-06-26T01:27:35.972Z,13.47
2019-06-26T01:30:08.137Z,16.67
2019-06-26T01:32:36.501Z,14.60
2019-06-26T01:35:06.793Z,15.63
2019-06-26T01:37:35.257Z,15.47
2019-06-26T01:40:06.129Z,13.67
2019-06-26T01:42:34.590Z,13.93
2019-06-26T01:45:03.390Z,14.70
2019-06-26T01:47:31.867Z,14.10
2019-06-26T01:50:00.313Z,14.60
2019-06-26T01:52:28.440Z,14.30
2019-06-26T01:54:56.877Z,15.10
2019-06-26T01:57:25.317Z,14.60
2019-06-26T01:59:53.544Z,14.70
2019-06-26T02:02:21.990Z,14.10
2019-06-26T02:04:50.451Z,15.03
2019-06-26T02:07:18.901Z,14.90
2019-06-26T02:09:47.061Z,14.87
2019-06-26T02:12:15.545Z,14.30
2019-06-26T02:14:43.982Z,14.50
2019-06-26T02:17:12.093Z,14.87
2019-06-26T02:19:40.525Z,14.97
2019-06-26T02:22:08.994Z,15.37
2019-06-26T02:24:37.437Z,14.33
2019-06-26T02:27:05.882Z,14.93
2019-06-26T02:29:33.981Z,14.93
2019-06-26T02:32:02.422Z,14.27
2019-06-26T02:34:30.513Z,14.50
2019-06-26T02:36:59.010Z,15.50
2019-06-26T02:39:27.479Z,14.97
2019-06-26T02:41:56.181Z,15.90
2019-06-26T02:44:24.284Z,13.83
2019-06-26T02:46:52.713Z,14.77
2019-06-26T02:49:21.179Z,14.80
2019-06-26T02:51:49.529Z,15.23
2019-06-26T02:54:18.016Z,15.13
2019-06-26T02:56:46.567Z,15.23
2019-06-26T02:59:15.152Z,15.00
2019-06-26T03:01:44.045Z,15.43
2019-06-26T03:04:12.164Z,16.80
2019-06-26T03:06:40.284Z,16.00
2019-06-26T03:09:08.398Z,15.57
2019-06-26T03:11:36.829Z,15.53
2019-06-26T03:14:05.343Z,16.60
2019-06-26T03:16:33.774Z,16.30
2019-06-26T03:19:02.265Z,15.07
2019-06-26T03:21:30.717Z,15.33
2019-06-26T03:23:59.157Z,15.67
2019-06-26T03:26:27.610Z,15.47
2019-06-26T03:28:56.050Z,14.70
2019-06-26T03:31:24.638Z,16.23
2019-06-26T03:33:53.085Z,16.03
2019-06-26T03:36:21.524Z,16.43
2019-06-26T03:38:50.177Z,16.50
2019-06-26T03:41:18.273Z,16.53
2019-06-26T03:43:46.733Z,17.00
2019-06-26T03:46:15.149Z,16.60
2019-06-26T03:48:43.256Z,15.83
2019-06-26T03:51:13.866Z,15.70
2019-06-26T03:53:41.853Z,17.17
2019-06-26T03:56:09.990Z,15.97
2019-06-26T03:58:38.145Z,16.30
2019-06-26T04:01:06.580Z,15.90
2019-06-26T04:03:34.668Z,17.50
2019-06-26T04:06:03.105Z,16.20
2019-06-26T04:08:31.532Z,16.43
2019-06-26T04:11:00.172Z,18.90
2019-06-26T04:13:28.667Z,16.17
2019-06-26T04:15:57.124Z,16.87
2019-06-26T04:18:25.551Z,16.37
2019-06-26T04:20:53.992Z,17.03
2019-06-26T04:23:22.436Z,16.80
2019-06-26T04:25:50.564Z,17.73
2019-06-26T04:28:18.988Z,17.37
2019-06-26T04:30:47.475Z,17.20
2019-06-26T04:33:15.939Z,15.67
2019-06-26T04:35:44.112Z,17.37
2019-06-26T04:38:12.211Z,15.57
2019-06-26T04:40:40.641Z,18.03
2019-06-26T04:43:09.077Z,18.20
2019-06-26T04:45:37.223Z,19.17
2019-06-26T04:48:07.207Z,17.40
2019-06-26T04:50:35.964Z,18.00
2019-06-26T04:53:04.590Z,16.80
2019-06-26T04:55:33.128Z,16.90
2019-06-26T04:58:01.569Z,15.37
2019-06-26T05:00:30.165Z,16.07
2019-06-26T05:02:58.642Z,15.70
2019-06-26T05:05:38.980Z,15.40
2019-06-26T05:07:56.996Z,14.10
2019-06-26T05:10:25.427Z,14.30
2019-06-26T05:12:56.888Z,14.90
2019-06-26T05:15:25.816Z,13.80
2019-06-26T05:17:53.912Z,14.03
2019-06-26T05:20:22.379Z,14.17
2019-06-26T05:22:50.901Z,12.10
2019-06-26T05:25:19.324Z,11.80
2019-06-26T05:27:47.791Z,11.90
2019-06-26T05:30:16.593Z,12.03
2019-06-26T05:32:45.425Z,12.30
2019-06-26T05:35:14.776Z,12.27
2019-06-26T05:37:43.216Z,11.60
2019-06-26T05:40:12.111Z,12.03
2019-06-26T05:42:40.895Z,12.30
2019-06-26T05:45:12.137Z,12.03
2019-06-26T05:47:40.266Z,12.77
2019-06-26T05:50:12.888Z,11.73
2019-06-26T05:52:43.359Z,12.87
2019-06-26T05:55:12.201Z,12.20
2019-06-26T05:57:42.014Z,12.63
2019-06-26T06:00:11.859Z,13.07
2019-06-26T06:02:40.543Z,13.20
2019-06-26T06:05:09.514Z,11.80
2019-06-26T06:07:38.033Z,12.70
2019-06-26T06:10:07.072Z,12.30
2019-06-26T06:12:35.500Z,12.20
2019-06-26T06:15:06.702Z,11.77
2019-06-26T06:17:34.872Z,12.93
2019-06-26T06:20:09.028Z,11.40
2019-06-26T06:22:37.539Z,11.07
2019-06-26T06:25:07.036Z,12.60
2019-06-26T06:27:35.220Z,12.07
2019-06-26T06:30:07.387Z,10.97
2019-06-26T06:32:35.813Z,11.40
2019-06-26T06:35:05.724Z,12.07
2019-06-26T06:37:34.695Z,10.33
2019-06-26T06:40:04.607Z,11.17
2019-06-26T06:42:33.134Z,12.00
2019-06-26T06:45:02.097Z,11.67
2019-06-26T06:47:30.663Z,10.07
2019-06-26T06:49:59.193Z,10.30
2019-06-26T06:52:27.981Z,11.43
2019-06-26T06:54:56.160Z,10.00
2019-06-26T06:57:24.588Z,9.97
2019-06-26T06:59:53.134Z,10.63
2019-06-26T07:02:21.803Z,9.93
2019-06-26T07:04:50.261Z,9.57
2019-06-26T07:07:18.913Z,9.57
2019-06-26T07:09:47.608Z,8.80
2019-06-26T07:12:16.405Z,10.60
2019-06-26T07:14:44.865Z,10.73
2019-06-26T07:17:20.589Z,10.90
2019-06-26T07:19:45.801Z,10.40
2019-06-26T07:22:14.495Z,11.03
2019-06-26T07:24:42.910Z,9.97
2019-06-26T07:27:11.340Z,9.60
2019-06-26T07:29:39.452Z,9.50
2019-06-26T07:32:07.912Z,9.83
2019-06-26T07:34:36.361Z,10.57
2019-06-26T07:37:04.477Z,9.13
2019-06-26T07:39:33.039Z,9.13
2019-06-26T07:42:01.340Z,8.57
2019-06-26T07:44:30.142Z,8.27
2019-06-26T07:46:58.675Z,7.83
2019-06-26T07:49:27.179Z,8.13
2019-06-26T07:51:55.735Z,7.67
2019-06-26T07:54:23.882Z,8.30
2019-06-26T07:56:52.329Z,7.77
2019-06-26T07:59:20.834Z,6.60
2019-06-26T08:01:49.319Z,7.10
2019-06-26T08:04:17.740Z,6.00
2019-06-26T08:06:46.169Z,7.17
2019-06-26T08:09:14.593Z,6.70
2019-06-26T08:11:42.800Z,6.73
2019-06-26T08:14:11.255Z,7.33
2019-06-26T08:16:39.789Z,6.87
2019-06-26T08:19:08.230Z,6.23
2019-06-26T08:21:36.680Z,6.50
2019-06-26T08:24:05.239Z,6.97
2019-06-26T08:26:33.688Z,6.60
2019-06-26T08:29:02.461Z,6.60
2019-06-26T08:31:30.548Z,5.83
2019-06-26T08:33:58.862Z,6.43
2019-06-26T08:36:27.356Z,6.90
2019-06-26T08:38:55.814Z,6.77
2019-06-26T08:41:24.258Z,6.60
2019-06-26T08:43:52.721Z,6.73
2019-06-26T08:46:21.169Z,6.20
2019-06-26T08:48:52.117Z,6.90
2019-06-26T08:51:20.216Z,7.23
2019-06-26T08:53:48.657Z,6.70
2019-06-26T08:56:17.089Z,7.10
2019-06-26T08:58:45.540Z,7.10
2019-06-26T09:01:13.628Z,6.30
2019-06-26T09:03:42.221Z,7.03
2019-06-26T09:06:10.916Z,7.33
2019-06-26T09:08:39.377Z,6.90
2019-06-26T09:11:07.586Z,7.10
2019-06-26T09:13:36.067Z,7.20
2019-06-26T09:16:04.199Z,6.80
2019-06-26T09:18:35.780Z,7.63
2019-06-26T09:21:03.064Z,7.50
2019-06-26T09:23:31.513Z,7.30
2019-06-26T09:26:00.080Z,6.83
2019-06-26T09:28:28.507Z,6.60
2019-06-26T09:30:56.961Z,6.90
2019-06-26T09:33:25.521Z,6.40
2019-06-26T09:35:53.977Z,6.53
2019-06-26T09:38:22.585Z,6.70
2019-06-26T09:40:51.038Z,6.70
2019-06-26T09:43:19.572Z,7.23
2019-06-26T09:45:51.393Z,6.90
2019-06-26T09:48:19.929Z,6.93
2019-06-26T09:50:48.372Z,7.83
2019-06-26T09:53:16.854Z,8.17
2019-06-26T09:55:45.293Z,7.80
2019-06-26T09:58:13.795Z,7.97
2019-06-26T10:00:42.619Z,7.07
2019-06-26T10:03:11.058Z,7.30
2019-06-26T10:05:39.521Z,7.13
2019-06-26T10:08:07.703Z,6.93
2019-06-26T10:10:36.485Z,5.60
2019-06-26T10:13:04.647Z,5.50
2019-06-26T10:15:33.119Z,6.87
2019-06-26T10:18:02.748Z,5.77
2019-06-26T10:20:31.218Z,6.40
2019-06-26T10:22:59.735Z,6.17
2019-06-26T10:25:28.194Z,6.17
2019-06-26T10:27:56.637Z,5.73
2019-06-26T10:30:24.732Z,6.47
2019-06-26T10:32:53.203Z,6.10
2019-06-26T10:35:21.831Z,5.23
2019-06-26T10:37:50.022Z,5.37
2019-06-26T10:40:18.820Z,6.20
2019-06-26T10:42:46.949Z,6.00
2019-06-26T10:45:15.492Z,5.60
2019-06-26T10:47:43.940Z,5.07
2019-06-26T10:50:13.208Z,6.83
2019-06-26T10:52:41.333Z,5.60
2019-06-26T10:55:10.608Z,5.30
2019-06-26T10:57:39.261Z,4.47
2019-06-26T11:00:10.870Z,5.17
2019-06-26T11:02:39.795Z,4.97
2019-06-26T11:05:08.249Z,5.10
2019-06-26T11:07:36.716Z,5.80
2019-06-26T11:10:08.826Z,5.00
2019-06-26T11:12:37.261Z,4.30
2019-06-26T11:15:10.269Z,4.90
2019-06-26T11:17:38.780Z,4.70
2019-06-26T11:20:10.409Z,3.67
2019-06-26T11:22:38.692Z,5.40
2019-06-26T11:25:09.245Z,4.23
2019-06-26T11:27:37.968Z,5.67
2019-06-26T11:30:07.431Z,4.40
2019-06-26T11:32:35.574Z,5.63
2019-06-26T11:35:06.426Z,5.00
2019-06-26T11:37:34.884Z,3.80
2019-06-26T11:40:05.018Z,4.80
2019-06-26T11:42:34.567Z,5.20
2019-06-26T11:45:03.954Z,4.43
2019-06-26T11:47:32.655Z,4.47
2019-06-26T11:50:01.310Z,4.63
2019-06-26T11:52:31.316Z,4.10
2019-06-26T11:55:03.083Z,4.37
2019-06-26T11:57:29.613Z,3.97
2019-06-26T11:59:58.333Z,4.70
2019-06-26T12:02:26.770Z,5.50
2019-06-26T12:04:55.205Z,5.47
2019-06-26T12:07:23.670Z,3.80
2019-06-26T12:09:52.129Z,4.10
2019-06-26T12:12:20.301Z,4.87
2019-06-26T12:14:49.858Z,5.40
2019-06-26T12:17:18.358Z,5.33
2019-06-26T12:19:46.796Z,5.40
2019-06-26T12:22:15.484Z,5.73
2019-06-26T12:24:44.000Z,5.73
2019-06-26T12:27:12.443Z,5.03
2019-06-26T12:29:40.907Z,5.97
2019-06-26T12:32:09.353Z,5.73
2019-06-26T12:34:37.486Z,6.00
2019-06-26T12:37:05.931Z,6.13
2019-06-26T12:39:34.384Z,5.17
2019-06-26T12:42:02.805Z,5.80
2019-06-26T12:44:32.789Z,6.47
2019-06-26T12:47:01.216Z,5.97
2019-06-26T12:49:29.677Z,5.80
2019-06-26T12:51:58.119Z,6.67
2019-06-26T12:54:28.279Z,5.10
2019-06-26T12:56:57.401Z,6.40
2019-06-26T12:59:25.899Z,6.37
2019-06-26T13:01:54.769Z,6.73
2019-06-26T13:04:23.205Z,5.73
2019-06-26T13:06:51.649Z,6.37
2019-06-26T13:09:20.106Z,6.53
2019-06-26T13:11:48.537Z,5.60
2019-06-26T13:14:16.651Z,6.73
2019-06-26T13:16:44.793Z,6.10
2019-06-26T13:19:13.303Z,7.10
2019-06-26T13:21:41.809Z,5.90
2019-06-26T13:24:10.297Z,7.70
2019-06-26T13:26:38.726Z,7.97
2019-06-26T13:29:09.821Z,6.90
2019-06-26T13:31:37.101Z,6.63
2019-06-26T13:34:05.389Z,6.70
2019-06-26T13:36:34.658Z,6.57
2019-06-26T13:39:03.101Z,6.93
2019-06-26T13:41:32.232Z,5.90
2019-06-26T13:44:00.328Z,5.93
2019-06-26T13:46:28.813Z,6.07
2019-06-26T13:48:57.294Z,6.73
2019-06-26T13:51:25.430Z,7.93
2019-06-26T13:53:53.644Z,6.00
2019-06-26T13:56:22.143Z,7.30
2019-06-26T13:58:50.552Z,7.00
2019-06-26T14:01:18.684Z,7.33
2019-06-26T14:03:47.144Z,7.60
2019-06-26T14:06:15.653Z,6.00
2019-06-26T14:08:43.917Z,5.93
2019-06-26T14:11:12.357Z,7.83
2019-06-26T14:13:41.935Z,8.10
2019-06-26T14:16:11.324Z,6.57
2019-06-26T14:18:40.001Z,5.93
2019-06-26T14:21:21.535Z,6.03
2019-06-26T14:23:38.411Z,5.90
2019-06-26T14:26:06.844Z,5.97
2019-06-26T14:28:35.294Z,6.87
2019-06-26T14:31:03.740Z,5.83
2019-06-26T14:33:33.654Z,6.30
2019-06-26T14:36:01.808Z,5.10
2019-06-26T14:38:29.989Z,6.63
2019-06-26T14:40:58.568Z,6.03
2019-06-26T14:43:27.025Z,5.60
2019-06-26T14:45:55.560Z,5.23
2019-06-26T14:48:23.722Z,6.30
2019-06-26T14:50:52.304Z,7.93
2019-06-26T14:53:20.805Z,6.67
2019-06-26T14:55:48.928Z,4.80
2019-06-26T14:58:17.362Z,6.60
2019-06-26T15:00:45.789Z,6.63
2019-06-26T15:03:14.246Z,6.17
2019-06-26T15:05:44.228Z,6.80
2019-06-26T15:08:12.348Z,6.30
2019-06-26T15:10:40.798Z,7.00
2019-06-26T15:13:09.235Z,5.70
2019-06-26T15:15:37.367Z,6.80
2019-06-26T15:18:05.941Z,5.60
2019-06-26T15:20:34.370Z,6.00
2019-06-26T15:23:03.985Z,6.70
2019-06-26T15:25:32.104Z,6.50
2019-06-26T15:28:00.606Z,6.53
2019-06-26T15:30:28.705Z,6.07
2019-06-26T15:32:57.189Z,6.43
2019-06-26T15:35:25.675Z,5.57
2019-06-26T15:37:54.129Z,5.37
2019-06-26T15:40:22.559Z,5.67
2019-06-26T15:42:51.799Z,5.20
2019-06-26T15:45:20.919Z,5.10
2019-06-26T15:47:50.235Z,6.50
2019-06-26T15:50:18.683Z,5.97
2019-06-26T15:52:46.852Z,5.77
2019-06-26T15:55:14.989Z,5.23
2019-06-26T15:57:43.082Z,5.30
2019-06-26T16:00:12.761Z,5.50
2019-06-26T16:02:40.923Z,5.03
2019-06-26T16:05:09.758Z,4.37
2019-06-26T16:07:38.193Z,4.57
2019-06-26T16:10:06.769Z,4.63
2019-06-26T16:12:35.205Z,5.27
2019-06-26T16:15:04.385Z,5.43
2019-06-26T16:17:39.881Z,5.30
2019-06-26T16:20:08.005Z,4.80
2019-06-26T16:22:36.480Z,5.23
2019-06-26T16:25:06.106Z,6.50
2019-06-26T16:27:34.547Z,5.50
2019-06-26T16:30:03.409Z,5.40
2019-06-26T16:32:31.555Z,6.63
2019-06-26T16:34:59.658Z,5.60
2019-06-26T16:37:27.782Z,5.90
2019-06-26T16:39:56.213Z,7.73
2019-06-26T16:42:26.040Z,6.60
2019-06-26T16:44:54.477Z,6.87
2019-06-26T16:47:22.596Z,7.03
2019-06-26T16:49:51.187Z,7.20
2019-06-26T16:52:19.310Z,7.50
2019-06-26T16:54:47.472Z,6.17
2019-06-26T16:57:15.904Z,6.83
2019-06-26T16:59:44.384Z,7.40
2019-06-26T17:02:12.897Z,6.93
2019-06-26T17:04:41.334Z,6.30
2019-06-26T17:07:09.792Z,7.17
2019-06-26T17:09:38.365Z,7.23
2019-06-26T17:12:06.886Z,7.33
2019-06-26T17:14:35.345Z,7.27
2019-06-26T17:17:03.441Z,7.30
2019-06-26T17:19:31.882Z,7.57
2019-06-26T17:22:00.145Z,7.37
2019-06-26T17:24:28.625Z,8.10
2019-06-26T17:26:59.364Z,6.93
2019-06-26T17:29:27.841Z,6.30
2019-06-26T17:31:56.299Z,6.03
2019-06-26T17:34:27.249Z,7.10
2019-06-26T17:36:54.425Z,6.30
2019-06-26T17:39:22.861Z,5.77
2019-06-26T17:41:51.320Z,5.77
2019-06-26T17:44:19.818Z,4.63
2019-06-26T17:46:48.328Z,4.93
2019-06-26T17:49:16.426Z,4.27
2019-06-26T17:51:44.530Z,4.00
2019-06-26T17:54:12.962Z,4.50
2019-06-26T17:56:41.093Z,3.53
2019-06-26T17:59:09.508Z,4.03
2019-06-26T18:01:37.992Z,3.00
2019-06-26T18:04:06.229Z,4.37
2019-06-26T18:06:34.373Z,4.60
2019-06-26T18:09:04.345Z,3.00
2019-06-26T18:11:32.779Z,2.90
2019-06-26T18:14:01.882Z,3.33
2019-06-26T18:16:30.310Z,2.43
2019-06-26T18:18:58.427Z,3.40
2019-06-26T18:21:26.535Z,2.80
2019-06-26T18:23:54.628Z,2.80
2019-06-26T18:26:23.161Z,2.47
2019-06-26T18:28:52.182Z,3.10
2019-06-26T18:31:20.609Z,3.07
2019-06-26T18:33:48.715Z,3.17
2019-06-26T18:36:18.376Z,2.50
2019-06-26T18:38:46.874Z,2.70
2019-06-26T18:41:18.476Z,2.70
2019-06-26T18:43:45.160Z,2.40
2019-06-26T18:46:13.594Z,3.00
2019-06-26T18:48:41.697Z,2.40
2019-06-26T18:51:09.810Z,3.80
2019-06-26T18:53:52.772Z,4.27
2019-06-26T18:56:08.064Z,7.63
2019-06-26T18:58:36.521Z,2.90
2019-06-26T19:01:05.329Z,3.20
2019-06-26T19:03:33.440Z,3.20
2019-06-26T19:06:01.541Z,3.00
2019-06-26T19:08:29.978Z,3.80
2019-06-26T19:10:58.110Z,3.10
2019-06-26T19:13:26.234Z,4.17
2019-06-26T19:15:54.653Z,3.47
2019-06-26T19:18:22.793Z,3.37
2019-06-26T19:20:51.421Z,3.67
2019-06-26T19:23:19.870Z,3.37
2019-06-26T19:25:47.965Z,4.13
2019-06-26T19:28:16.406Z,4.03
2019-06-26T19:30:44.833Z,4.17
2019-06-26T19:33:13.293Z,3.53
2019-06-26T19:35:43.197Z,4.90
2019-06-26T19:38:11.701Z,3.90
2019-06-26T19:40:40.507Z,4.13
2019-06-26T19:43:10.948Z,4.17
2019-06-26T19:45:38.439Z,5.73
2019-06-26T19:48:06.879Z,4.60
2019-06-26T19:50:34.969Z,4.70
2019-06-26T19:53:03.434Z,3.97
2019-06-26T19:55:31.886Z,4.50
2019-06-26T19:58:00.011Z,4.20
2019-06-26T20:00:28.684Z,5.10
2019-06-26T20:02:57.260Z,4.00
2019-06-26T20:05:25.342Z,3.30
2019-06-26T20:07:53.896Z,4.30
2019-06-26T20:10:22.674Z,5.20
2019-06-26T20:12:51.168Z,4.43
2019-06-26T20:15:20.081Z,4.00
2019-06-26T20:17:48.577Z,5.13
2019-06-26T20:20:18.252Z,4.23
2019-06-26T20:22:46.675Z,4.57
2019-06-26T20:25:15.150Z,4.63
2019-06-26T20:27:43.579Z,4.03
2019-06-26T20:30:12.989Z,3.83
2019-06-26T20:32:41.417Z,4.10
2019-06-26T20:35:12.244Z,5.53
2019-06-26T20:37:40.466Z,3.77
2019-06-26T20:40:09.528Z,4.40
2019-06-26T20:42:37.954Z,4.50
2019-06-26T20:45:06.129Z,4.50
2019-06-26T20:47:35.617Z,3.83
2019-06-26T20:50:07.744Z,4.10
2019-06-26T20:52:36.242Z,2.97
2019-06-26T20:55:06.696Z,3.60
2019-06-26T20:57:34.841Z,3.33
2019-06-26T21:00:03.549Z,3.23
2019-06-26T21:02:33.349Z,3.03
2019-06-26T21:05:01.953Z,3.80
2019-06-26T21:07:30.071Z,3.07
2019-06-26T21:09:58.604Z,3.63
2019-06-26T21:12:27.090Z,3.83
2019-06-26T21:14:55.566Z,3.00
2019-06-26T21:17:25.808Z,3.73
2019-06-26T21:19:53.901Z,3.30
2019-06-26T21:22:21.999Z,2.70
2019-06-26T21:24:50.605Z,3.00
2019-06-26T21:27:18.701Z,3.50
2019-06-26T21:29:47.214Z,4.50
2019-06-26T21:32:15.670Z,3.43
2019-06-26T21:34:43.755Z,3.50
2019-06-26T21:37:12.217Z,4.10
2019-06-26T21:39:40.634Z,3.60
2019-06-26T21:42:08.780Z,4.00
2019-06-26T21:44:37.228Z,3.67
2019-06-26T21:47:05.673Z,3.40
2019-06-26T21:49:34.950Z,4.57
2019-06-26T21:52:03.389Z,4.37
2019-06-26T21:54:31.822Z,3.47
2019-06-26T21:56:59.946Z,5.17
2019-06-26T21:59:28.909Z,4.37
2019-06-26T22:01:57.648Z,4.27
2019-06-26T22:04:26.413Z,5.13
2019-06-26T22:06:54.854Z,4.40
2019-06-26T22:09:23.412Z,3.83
2019-06-26T22:11:51.801Z,3.77
2019-06-26T22:14:19.893Z,4.60
2019-06-26T22:16:47.999Z,3.20
2019-06-26T22:19:16.148Z,4.63
2019-06-26T22:21:44.586Z,4.50
2019-06-26T22:24:12.703Z,5.80
2019-06-26T22:26:42.199Z,4.00
2019-06-26T22:29:10.374Z,4.20
2019-06-26T22:31:38.565Z,3.80
2019-06-26T22:34:08.651Z,3.20
2019-06-26T22:36:36.790Z,3.60
2019-06-26T22:39:06.285Z,3.30
2019-06-26T22:41:34.801Z,3.23
2019-06-26T22:44:02.936Z,2.87
2019-06-26T22:46:31.357Z,2.80
2019-06-26T22:48:59.798Z,3.63
2019-06-26T22:51:28.227Z,3.10
2019-06-26T22:53:56.333Z,3.00
2019-06-26T22:56:25.400Z,3.63
2019-06-26T22:58:53.890Z,3.00
2019-06-26T23:01:23.389Z,2.87
2019-06-26T23:03:52.096Z,3.47
2019-06-26T23:06:20.526Z,3.00
2019-06-26T23:08:48.632Z,3.20
2019-06-26T23:11:16.762Z,3.90
2019-06-26T23:13:46.774Z,3.50
2019-06-26T23:16:16.366Z,2.70
2019-06-26T23:18:44.591Z,3.20
2019-06-26T23:21:12.686Z,2.83
2019-06-26T23:23:40.789Z,2.87
2019-06-26T23:26:22.999Z,3.20
2019-06-26T23:28:39.084Z,2.80
2019-06-26T23:31:07.254Z,3.20
2019-06-26T23:33:35.838Z,3.90
2019-06-26T23:36:04.308Z,3.83
2019-06-26T23:38:32.781Z,3.43
2019-06-26T23:41:00.877Z,3.90
2019-06-26T23:43:29.323Z,2.60
2019-06-26T23:45:57.751Z,2.63
2019-06-26T23:48:26.190Z,3.10
2019-06-26T23:50:54.641Z,4.10
2019-06-26T23:53:22.844Z,4.00
2019-06-26T23:55:51.300Z,3.57
2019-06-26T23:58:20.022Z,3.10
